sensor_id;sensor_type;location;lat;lon;timestamp;pressure;altitude;pressure_sealevel;temperature;humidity
47636;BME280;33364;50.766;15.338;2022-11-20T00:01:13;94334.84;;;-4.03;82.98
47636;BME280;33364;50.766;15.338;2022-11-20T00:03:39;94335.13;;;-3.85;89.67
47636;BME280;33364;50.766;15.338;2022-11-20T00:06:08;94322.63;;;-3.67;90.37
47636;BME280;33364;50.766;15.338;2022-11-20T00:08:34;94325.81;;;-3.61;87.41
47636;BME280;33364;50.766;15.338;2022-11-20T00:11:08;94326.44;;;-3.55;85.68
47636;BME280;33364;50.766;15.338;2022-11-20T00:13:34;94318.44;;;-3.66;85.97
47636;BME280;33364;50.766;15.338;2022-11-20T00:16:01;94319.06;;;-4.09;79.28
47636;BME280;33364;50.766;15.338;2022-11-20T00:18:28;94321.50;;;-4.06;84.14
47636;BME280;33364;50.766;15.338;2022-11-20T00:21:00;94324.72;;;-4.01;88.55
47636;BME280;33364;50.766;15.338;2022-11-20T00:23:26;94320.47;;;-4.01;85.41
47636;BME280;33364;50.766;15.338;2022-11-20T00:25:52;94317.41;;;-3.85;89.76
47636;BME280;33364;50.766;15.338;2022-11-20T00:28:17;94332.06;;;-4.20;81.18
47636;BME280;33364;50.766;15.338;2022-11-20T00:30:43;94327.84;;;-4.20;83.71
47636;BME280;33364;50.766;15.338;2022-11-20T00:33:09;94338.75;;;-4.44;80.00
47636;BME280;33364;50.766;15.338;2022-11-20T00:35:34;94333.59;;;-4.41;82.71
47636;BME280;33364;50.766;15.338;2022-11-20T00:38:00;94340.16;;;-4.62;79.15
47636;BME280;33364;50.766;15.338;2022-11-20T00:40:25;94342.78;;;-4.65;81.03
47636;BME280;33364;50.766;15.338;2022-11-20T00:42:51;94339.91;;;-4.54;84.25
47636;BME280;33364;50.766;15.338;2022-11-20T00:45:17;94341.34;;;-4.46;82.52
47636;BME280;33364;50.766;15.338;2022-11-20T00:47:42;94339.78;;;-4.50;82.62
47636;BME280;33364;50.766;15.338;2022-11-20T00:50:08;94330.88;;;-4.35;84.16
47636;BME280;33364;50.766;15.338;2022-11-20T00:52:34;94336.69;;;-4.33;85.38
47636;BME280;33364;50.766;15.338;2022-11-20T00:55:00;94339.53;;;-4.17;85.09
47636;BME280;33364;50.766;15.338;2022-11-20T00:57:25;94344.03;;;-4.25;80.07
47636;BME280;33364;50.766;15.338;2022-11-20T00:59:51;94343.25;;;-4.27;82.60
47636;BME280;33364;50.766;15.338;2022-11-20T01:02:17;94345.63;;;-4.23;82.17
47636;BME280;33364;50.766;15.338;2022-11-20T01:04:42;94344.25;;;-4.31;80.99
47636;BME280;33364;50.766;15.338;2022-11-20T01:07:08;94349.88;;;-4.50;80.88
47636;BME280;33364;50.766;15.338;2022-11-20T01:09:34;94344.56;;;-4.69;80.27
47636;BME280;33364;50.766;15.338;2022-11-20T01:11:59;94350.78;;;-4.79;80.15
47636;BME280;33364;50.766;15.338;2022-11-20T01:14:25;94353.50;;;-4.85;79.42
47636;BME280;33364;50.766;15.338;2022-11-20T01:16:52;94355.69;;;-4.74;83.43
47636;BME280;33364;50.766;15.338;2022-11-20T01:19:20;94351.25;;;-4.66;84.76
47636;BME280;33364;50.766;15.338;2022-11-20T01:21:49;94360.13;;;-4.54;85.74
47636;BME280;33364;50.766;15.338;2022-11-20T01:24:17;94361.06;;;-4.57;85.19
47636;BME280;33364;50.766;15.338;2022-11-20T01:26:44;94362.09;;;-4.37;86.38
47636;BME280;33364;50.766;15.338;2022-11-20T01:29:17;94357.06;;;-4.12;88.00
47636;BME280;33364;50.766;15.338;2022-11-20T01:31:44;94367.56;;;-3.98;87.91
47636;BME280;33364;50.766;15.338;2022-11-20T01:34:12;94357.91;;;-3.87;88.29
47636;BME280;33364;50.766;15.338;2022-11-20T01:36:40;94361.75;;;-4.27;76.90
47636;BME280;33364;50.766;15.338;2022-11-20T01:39:11;94358.97;;;-4.72;76.29
47636;BME280;33364;50.766;15.338;2022-11-20T01:41:37;94347.16;;;-4.70;81.33
47636;BME280;33364;50.766;15.338;2022-11-20T01:44:55;94351.09;;;-4.61;83.13
47636;BME280;33364;50.766;15.338;2022-11-20T01:47:27;94338.00;;;-4.48;87.85
47636;BME280;33364;50.766;15.338;2022-11-20T01:49:59;94343.56;;;-4.63;83.45
47636;BME280;33364;50.766;15.338;2022-11-20T01:52:33;94343.06;;;-4.74;81.86
47636;BME280;33364;50.766;15.338;2022-11-20T01:55:13;94340.31;;;-4.66;83.61
47636;BME280;33364;50.766;15.338;2022-11-20T01:57:40;94336.72;;;-4.87;78.46
47636;BME280;33364;50.766;15.338;2022-11-20T02:00:09;94334.31;;;-4.90;85.77
47636;BME280;33364;50.766;15.338;2022-11-20T02:02:36;94327.72;;;-4.68;91.28
47636;BME280;33364;50.766;15.338;2022-11-20T02:05:13;94330.88;;;-4.35;93.85
47636;BME280;33364;50.766;15.338;2022-11-20T02:07:40;94326.06;;;-4.43;88.79
47636;BME280;33364;50.766;15.338;2022-11-20T02:10:06;94329.13;;;-4.59;85.44
47636;BME280;33364;50.766;15.338;2022-11-20T02:12:32;94326.78;;;-4.39;90.81
47636;BME280;33364;50.766;15.338;2022-11-20T02:15:16;94332.97;;;-4.21;90.24
47636;BME280;33364;50.766;15.338;2022-11-20T02:17:42;94333.09;;;-4.26;85.16
47636;BME280;33364;50.766;15.338;2022-11-20T02:20:08;94338.41;;;-4.33;84.73
47636;BME280;33364;50.766;15.338;2022-11-20T02:22:40;94337.31;;;-4.51;83.58
47636;BME280;33364;50.766;15.338;2022-11-20T02:25:12;94327.09;;;-4.48;84.17
47636;BME280;33364;50.766;15.338;2022-11-20T02:27:38;94330.50;;;-4.49;83.74
47636;BME280;33364;50.766;15.338;2022-11-20T02:30:05;94331.47;;;-4.53;83.17
47636;BME280;33364;50.766;15.338;2022-11-20T02:32:37;94328.69;;;-4.72;83.26
47636;BME280;33364;50.766;15.338;2022-11-20T02:35:54;94326.53;;;-4.56;85.10
47636;BME280;33364;50.766;15.338;2022-11-20T02:37:58;94330.59;;;-4.27;88.94
47636;BME280;33364;50.766;15.338;2022-11-20T02:40:24;94333.81;;;-4.22;84.00
47636;BME280;33364;50.766;15.338;2022-11-20T02:42:54;94334.47;;;-4.42;81.81
47636;BME280;33364;50.766;15.338;2022-11-20T02:45:20;94327.31;;;-4.29;85.41
47636;BME280;33364;50.766;15.338;2022-11-20T02:47:46;94331.28;;;-4.22;84.56
47636;BME280;33364;50.766;15.338;2022-11-20T02:50:12;94327.38;;;-4.06;84.69
47636;BME280;33364;50.766;15.338;2022-11-20T02:52:38;94327.53;;;-4.10;80.98
47636;BME280;33364;50.766;15.338;2022-11-20T02:55:04;94327.00;;;-4.45;75.91
47636;BME280;33364;50.766;15.338;2022-11-20T02:57:30;94313.75;;;-4.78;79.54
47636;BME280;33364;50.766;15.338;2022-11-20T02:59:55;94326.41;;;-5.08;76.82
47636;BME280;33364;50.766;15.338;2022-11-20T03:02:22;94325.38;;;-5.29;79.14
47636;BME280;33364;50.766;15.338;2022-11-20T03:04:47;94318.03;;;-5.08;84.97
47636;BME280;33364;50.766;15.338;2022-11-20T03:07:13;94310.09;;;-4.70;90.18
47636;BME280;33364;50.766;15.338;2022-11-20T03:09:39;94310.84;;;-4.66;84.35
47636;BME280;33364;50.766;15.338;2022-11-20T03:12:05;94311.66;;;-4.65;83.85
47636;BME280;33364;50.766;15.338;2022-11-20T03:14:30;94312.84;;;-4.77;82.95
47636;BME280;33364;50.766;15.338;2022-11-20T03:16:56;94303.34;;;-4.69;88.90
47636;BME280;33364;50.766;15.338;2022-11-20T03:19:22;94304.78;;;-4.60;90.19
47636;BME280;33364;50.766;15.338;2022-11-20T03:21:48;94316.06;;;-4.99;82.94
47636;BME280;33364;50.766;15.338;2022-11-20T03:24:13;94304.25;;;-4.98;87.10
47636;BME280;33364;50.766;15.338;2022-11-20T03:26:39;94304.53;;;-4.79;91.57
47636;BME280;33364;50.766;15.338;2022-11-20T03:29:05;94300.81;;;-4.69;90.07
47636;BME280;33364;50.766;15.338;2022-11-20T03:31:33;94299.66;;;-4.59;89.84
47636;BME280;33364;50.766;15.338;2022-11-20T03:33:59;94306.81;;;-4.72;84.13
47636;BME280;33364;50.766;15.338;2022-11-20T03:36:26;94310.69;;;-4.61;88.73
47636;BME280;33364;50.766;15.338;2022-11-20T03:38:54;94308.16;;;-4.61;86.01
47636;BME280;33364;50.766;15.338;2022-11-20T03:41:25;94309.41;;;-4.48;88.89
47636;BME280;33364;50.766;15.338;2022-11-20T03:43:53;94301.44;;;-4.36;89.37
47636;BME280;33364;50.766;15.338;2022-11-20T03:46:19;94310.53;;;-4.30;85.86
47636;BME280;33364;50.766;15.338;2022-11-20T03:48:45;94309.44;;;-4.23;83.53
47636;BME280;33364;50.766;15.338;2022-11-20T03:51:17;94314.63;;;-4.28;82.79
47636;BME280;33364;50.766;15.338;2022-11-20T03:53:44;94312.91;;;-4.26;83.88
47636;BME280;33364;50.766;15.338;2022-11-20T03:56:12;94309.41;;;-4.48;79.37
47636;BME280;33364;50.766;15.338;2022-11-20T03:58:38;94309.84;;;-4.62;82.25
47636;BME280;33364;50.766;15.338;2022-11-20T04:01:12;94306.78;;;-4.45;88.27
47636;BME280;33364;50.766;15.338;2022-11-20T04:03:39;94306.00;;;-4.47;89.20
47636;BME280;33364;50.766;15.338;2022-11-20T04:06:17;94316.44;;;-4.56;86.92
47636;BME280;33364;50.766;15.338;2022-11-20T04:08:43;94316.28;;;-4.52;85.26
47636;BME280;33364;50.766;15.338;2022-11-20T04:11:17;94318.34;;;-4.38;86.48
47636;BME280;33364;50.766;15.338;2022-11-20T04:13:47;94323.47;;;-4.14;85.45
47636;BME280;33364;50.766;15.338;2022-11-20T04:16:13;94319.50;;;-4.22;80.96
47636;BME280;33364;50.766;15.338;2022-11-20T04:18:39;94332.59;;;-4.10;82.86
47636;BME280;33364;50.766;15.338;2022-11-20T04:21:05;94325.16;;;-4.15;84.76
47636;BME280;33364;50.766;15.338;2022-11-20T04:23:31;94324.13;;;-4.34;81.69
47636;BME280;33364;50.766;15.338;2022-11-20T04:26:03;94328.28;;;-4.33;81.32
47636;BME280;33364;50.766;15.338;2022-11-20T04:28:29;94325.84;;;-4.61;76.14
47636;BME280;33364;50.766;15.338;2022-11-20T04:31:01;94330.44;;;-4.74;78.40
47636;BME280;33364;50.766;15.338;2022-11-20T04:33:27;94319.78;;;-4.56;85.53
47636;BME280;33364;50.766;15.338;2022-11-20T04:35:52;94311.56;;;-4.36;88.15
47636;BME280;33364;50.766;15.338;2022-11-20T04:38:18;94311.22;;;-4.27;84.59
47636;BME280;33364;50.766;15.338;2022-11-20T04:40:44;94309.19;;;-4.15;83.67
47636;BME280;33364;50.766;15.338;2022-11-20T04:43:10;94312.84;;;-4.24;82.15
47636;BME280;33364;50.766;15.338;2022-11-20T04:45:36;94304.63;;;-4.56;78.20
47636;BME280;33364;50.766;15.338;2022-11-20T04:48:01;94303.06;;;-4.86;78.59
47636;BME280;33364;50.766;15.338;2022-11-20T04:50:27;94299.25;;;-4.72;84.01
47636;BME280;33364;50.766;15.338;2022-11-20T04:52:52;94300.97;;;-4.74;81.82
47636;BME280;33364;50.766;15.338;2022-11-20T04:55:18;94291.19;;;-4.58;87.42
47636;BME280;33364;50.766;15.338;2022-11-20T04:57:44;94297.00;;;-4.54;84.56
47636;BME280;33364;50.766;15.338;2022-11-20T05:00:10;94301.00;;;-4.49;84.85
47636;BME280;33364;50.766;15.338;2022-11-20T05:02:35;94297.06;;;-4.31;86.16
47636;BME280;33364;50.766;15.338;2022-11-20T05:05:01;94298.25;;;-4.41;82.58
47636;BME280;33364;50.766;15.338;2022-11-20T05:07:27;94297.03;;;-4.56;81.24
47636;BME280;33364;50.766;15.338;2022-11-20T05:09:52;94291.94;;;-4.54;82.96
47636;BME280;33364;50.766;15.338;2022-11-20T05:12:18;94295.41;;;-4.57;82.04
47636;BME280;33364;50.766;15.338;2022-11-20T05:14:44;94291.84;;;-4.51;83.97
47636;BME280;33364;50.766;15.338;2022-11-20T05:17:10;94280.34;;;-4.35;88.79
47636;BME280;33364;50.766;15.338;2022-11-20T05:19:36;94281.47;;;-4.44;84.14
47636;BME280;33364;50.766;15.338;2022-11-20T05:22:02;94285.72;;;-4.44;85.14
47636;BME280;33364;50.766;15.338;2022-11-20T05:24:28;94287.34;;;-4.43;83.69
47636;BME280;33364;50.766;15.338;2022-11-20T05:26:53;94281.25;;;-4.36;87.82
47636;BME280;33364;50.766;15.338;2022-11-20T05:29:19;94283.53;;;-4.55;82.68
47636;BME280;33364;50.766;15.338;2022-11-20T05:31:44;94283.59;;;-4.56;85.98
47636;BME280;33364;50.766;15.338;2022-11-20T05:34:10;94276.88;;;-4.57;86.58
47636;BME280;33364;50.766;15.338;2022-11-20T05:36:36;94279.72;;;-4.66;83.99
47636;BME280;33364;50.766;15.338;2022-11-20T05:39:01;94279.50;;;-4.60;84.88
47636;BME280;33364;50.766;15.338;2022-11-20T05:41:27;94272.31;;;-4.73;84.60
47636;BME280;33364;50.766;15.338;2022-11-20T05:43:53;94276.09;;;-4.59;83.93
47636;BME280;33364;50.766;15.338;2022-11-20T05:46:20;94284.56;;;-4.60;82.80
47636;BME280;33364;50.766;15.338;2022-11-20T05:48:46;94273.00;;;-4.43;87.62
47636;BME280;33364;50.766;15.338;2022-11-20T05:51:16;94271.81;;;-4.57;83.05
47636;BME280;33364;50.766;15.338;2022-11-20T05:53:42;94266.31;;;-4.69;84.77
47636;BME280;33364;50.766;15.338;2022-11-20T05:56:19;94264.88;;;-4.76;83.38
47636;BME280;33364;50.766;15.338;2022-11-20T05:58:46;94273.59;;;-4.86;83.47
47636;BME280;33364;50.766;15.338;2022-11-20T06:03:41;94271.09;;;-4.86;83.33
47636;BME280;33364;50.766;15.338;2022-11-20T06:06:08;94258.41;;;-4.84;87.60
47636;BME280;33364;50.766;15.338;2022-11-20T06:08:35;94255.16;;;-4.61;93.61
47636;BME280;33364;50.766;15.338;2022-11-20T06:11:08;94257.03;;;-4.43;94.66
47636;BME280;33364;50.766;15.338;2022-11-20T06:13:35;94268.03;;;-4.44;92.66
47636;BME280;33364;50.766;15.338;2022-11-20T06:16:01;94263.56;;;-4.62;87.62
47636;BME280;33364;50.766;15.338;2022-11-20T06:18:28;94262.72;;;-4.61;87.42
47636;BME280;33364;50.766;15.338;2022-11-20T06:23:32;94268.06;;;-4.71;86.75
47636;BME280;33364;50.766;15.338;2022-11-20T06:26:04;94270.03;;;-4.54;85.81
47636;BME280;33364;50.766;15.338;2022-11-20T06:28:30;94266.53;;;-4.50;85.03
47636;BME280;33364;50.766;15.338;2022-11-20T06:30:56;94270.38;;;-4.64;83.62
47636;BME280;33364;50.766;15.338;2022-11-20T06:33:22;94268.25;;;-4.50;88.26
47636;BME280;33364;50.766;15.338;2022-11-20T06:35:47;94268.91;;;-4.45;84.68
47636;BME280;33364;50.766;15.338;2022-11-20T06:38:13;94262.88;;;-4.41;86.42
47636;BME280;33364;50.766;15.338;2022-11-20T06:40:42;94257.56;;;-4.58;81.04
47636;BME280;33364;50.766;15.338;2022-11-20T06:43:09;94267.56;;;-4.55;84.28
47636;BME280;33364;50.766;15.338;2022-11-20T06:45:35;94267.72;;;-4.35;89.18
47636;BME280;33364;50.766;15.338;2022-11-20T06:48:01;94263.69;;;-4.15;89.79
47636;BME280;33364;50.766;15.338;2022-11-20T06:50:27;94268.78;;;-4.42;82.99
47636;BME280;33364;50.766;15.338;2022-11-20T06:52:53;94262.41;;;-4.52;83.95
47636;BME280;33364;50.766;15.338;2022-11-20T06:55:18;94270.72;;;-4.24;89.85
47636;BME280;33364;50.766;15.338;2022-11-20T06:57:44;94269.06;;;-4.50;80.84
47636;BME280;33364;50.766;15.338;2022-11-20T07:00:10;94273.06;;;-4.44;83.51
47636;BME280;33364;50.766;15.338;2022-11-20T07:02:36;94279.47;;;-4.59;81.52
47636;BME280;33364;50.766;15.338;2022-11-20T07:05:02;94276.59;;;-4.75;79.87
47636;BME280;33364;50.766;15.338;2022-11-20T07:07:28;94271.78;;;-4.82;84.40
47636;BME280;33364;50.766;15.338;2022-11-20T07:09:53;94266.94;;;-4.37;90.70
47636;BME280;33364;50.766;15.338;2022-11-20T07:12:19;94266.09;;;-4.12;90.48
47636;BME280;33364;50.766;15.338;2022-11-20T07:14:45;94267.97;;;-4.18;81.49
47636;BME280;33364;50.766;15.338;2022-11-20T07:17:11;94273.50;;;-4.31;83.47
47636;BME280;33364;50.766;15.338;2022-11-20T07:19:37;94273.00;;;-4.18;84.30
47636;BME280;33364;50.766;15.338;2022-11-20T07:22:03;94261.97;;;-3.90;88.59
47636;BME280;33364;50.766;15.338;2022-11-20T07:24:28;94255.00;;;-3.61;90.75
47636;BME280;33364;50.766;15.338;2022-11-20T07:26:54;94267.44;;;-3.79;83.10
47636;BME280;33364;50.766;15.338;2022-11-20T07:29:19;94249.84;;;-3.58;91.83
47636;BME280;33364;50.766;15.338;2022-11-20T07:31:45;94257.66;;;-3.41;88.36
47636;BME280;33364;50.766;15.338;2022-11-20T07:34:11;94251.06;;;-3.45;85.02
47636;BME280;33364;50.766;15.338;2022-11-20T07:36:37;94246.88;;;-3.46;83.87
47636;BME280;33364;50.766;15.338;2022-11-20T07:39:02;94241.66;;;-3.20;89.03
47636;BME280;33364;50.766;15.338;2022-11-20T07:41:28;94247.53;;;-3.19;83.86
47636;BME280;33364;50.766;15.338;2022-11-20T07:43:54;94251.53;;;-3.14;85.02
47636;BME280;33364;50.766;15.338;2022-11-20T07:46:20;94242.47;;;-3.19;83.29
47636;BME280;33364;50.766;15.338;2022-11-20T07:48:45;94240.41;;;-3.09;83.21
47636;BME280;33364;50.766;15.338;2022-11-20T07:51:11;94237.50;;;-3.22;82.37
47636;BME280;33364;50.766;15.338;2022-11-20T07:53:37;94230.50;;;-3.38;80.93
47636;BME280;33364;50.766;15.338;2022-11-20T07:56:03;94224.31;;;-3.08;84.09
47636;BME280;33364;50.766;15.338;2022-11-20T07:58:29;94227.19;;;-3.16;82.47
47636;BME280;33364;50.766;15.338;2022-11-20T08:00:56;94221.91;;;-3.12;83.37
47636;BME280;33364;50.766;15.338;2022-11-20T08:03:21;94222.38;;;-3.02;83.13
47636;BME280;33364;50.766;15.338;2022-11-20T08:05:47;94224.63;;;-2.94;84.46
47636;BME280;33364;50.766;15.338;2022-11-20T08:08:12;94215.88;;;-2.87;82.19
47636;BME280;33364;50.766;15.338;2022-11-20T08:10:38;94224.38;;;-2.68;84.40
47636;BME280;33364;50.766;15.338;2022-11-20T08:13:04;94217.13;;;-2.55;84.36
47636;BME280;33364;50.766;15.338;2022-11-20T08:15:50;94220.78;;;-2.62;81.47
47636;BME280;33364;50.766;15.338;2022-11-20T08:18:19;94219.69;;;-2.77;82.93
47636;BME280;33364;50.766;15.338;2022-11-20T08:20:44;94217.56;;;-2.66;83.82
47636;BME280;33364;50.766;15.338;2022-11-20T08:23:10;94213.09;;;-2.20;91.88
47636;BME280;33364;50.766;15.338;2022-11-20T08:25:37;94210.59;;;-2.21;86.25
47636;BME280;33364;50.766;15.338;2022-11-20T08:28:05;94216.13;;;-2.32;84.94
47636;BME280;33364;50.766;15.338;2022-11-20T08:30:32;94204.16;;;-2.28;85.49
47636;BME280;33364;50.766;15.338;2022-11-20T08:33:04;94207.13;;;-2.19;88.14
47636;BME280;33364;50.766;15.338;2022-11-20T08:35:35;94207.09;;;-2.38;86.09
47636;BME280;33364;50.766;15.338;2022-11-20T08:38:05;94212.84;;;-2.34;87.63
47636;BME280;33364;50.766;15.338;2022-11-20T08:40:31;94221.00;;;-2.27;91.10
47636;BME280;33364;50.766;15.338;2022-11-20T08:42:57;94216.63;;;-2.03;91.73
47636;BME280;33364;50.766;15.338;2022-11-20T08:45:23;94222.84;;;-2.11;90.07
47636;BME280;33364;50.766;15.338;2022-11-20T08:47:49;94221.25;;;-2.13;87.55
47636;BME280;33364;50.766;15.338;2022-11-20T08:50:16;94228.56;;;-2.26;83.78
47636;BME280;33364;50.766;15.338;2022-11-20T08:52:42;94221.59;;;-2.41;84.21
47636;BME280;33364;50.766;15.338;2022-11-20T08:55:09;94216.13;;;-2.32;86.29
47636;BME280;33364;50.766;15.338;2022-11-20T08:57:36;94223.81;;;-2.33;85.27
47636;BME280;33364;50.766;15.338;2022-11-20T09:00:07;94210.19;;;-2.31;89.50
47636;BME280;33364;50.766;15.338;2022-11-20T09:02:33;94227.06;;;-2.30;84.81
47636;BME280;33364;50.766;15.338;2022-11-20T09:04:59;94221.72;;;-2.24;83.84
47636;BME280;33364;50.766;15.338;2022-11-20T09:07:27;94222.28;;;-2.17;85.94
47636;BME280;33364;50.766;15.338;2022-11-20T09:09:53;94215.50;;;-2.17;84.37
47636;BME280;33364;50.766;15.338;2022-11-20T09:12:19;94211.22;;;-1.96;88.03
47636;BME280;33364;50.766;15.338;2022-11-20T09:14:44;94218.84;;;-1.96;85.80
47636;BME280;33364;50.766;15.338;2022-11-20T09:17:10;94229.22;;;-2.02;84.18
47636;BME280;33364;50.766;15.338;2022-11-20T09:19:39;94226.56;;;-1.99;84.19
47636;BME280;33364;50.766;15.338;2022-11-20T09:22:05;94226.22;;;-1.91;86.94
47636;BME280;33364;50.766;15.338;2022-11-20T09:24:31;94233.00;;;-1.92;83.36
47636;BME280;33364;50.766;15.338;2022-11-20T09:26:57;94229.38;;;-1.86;84.79
47636;BME280;33364;50.766;15.338;2022-11-20T09:29:23;94222.25;;;-1.78;85.89
47636;BME280;33364;50.766;15.338;2022-11-20T09:31:48;94209.78;;;-1.64;88.33
47636;BME280;33364;50.766;15.338;2022-11-20T09:34:14;94215.56;;;-1.60;88.25
47636;BME280;33364;50.766;15.338;2022-11-20T09:36:40;94212.38;;;-1.46;90.41
47636;BME280;33364;50.766;15.338;2022-11-20T09:39:05;94211.56;;;-1.47;87.46
47636;BME280;33364;50.766;15.338;2022-11-20T09:41:45;94218.69;;;-1.74;84.31
47636;BME280;33364;50.766;15.338;2022-11-20T09:52:44;94207.31;;;-1.84;86.24
47636;BME280;33364;50.766;15.338;2022-11-20T09:55:12;94208.88;;;-1.82;85.95
47636;BME280;33364;50.766;15.338;2022-11-20T09:57:44;94207.66;;;-1.73;85.21
47636;BME280;33364;50.766;15.338;2022-11-20T10:00:13;94199.22;;;-1.73;87.34
47636;BME280;33364;50.766;15.338;2022-11-20T10:02:53;94205.69;;;-1.85;83.39
47636;BME280;33364;50.766;15.338;2022-11-20T10:05:25;94188.38;;;-1.77;87.42
47636;BME280;33364;50.766;15.338;2022-11-20T10:08:07;94184.50;;;-1.65;84.99
47636;BME280;33364;50.766;15.338;2022-11-20T10:16:42;94168.56;;;-1.88;89.47
47636;BME280;33364;50.766;15.338;2022-11-20T10:22:21;94164.03;;;-1.43;91.97
47636;BME280;33364;50.766;15.338;2022-11-20T10:24:55;94166.53;;;-1.61;85.36
47636;BME280;33364;50.766;15.338;2022-11-20T10:28:03;94158.16;;;-1.63;85.73
47636;BME280;33364;50.766;15.338;2022-11-20T10:30:24;94158.16;;;-1.63;85.93
47636;BME280;33364;50.766;15.338;2022-11-20T10:33:04;94162.00;;;-1.73;87.38
47636;BME280;33364;50.766;15.338;2022-11-20T10:38:39;94162.06;;;-1.55;90.89
47636;BME280;33364;50.766;15.338;2022-11-20T10:41:06;94156.84;;;-1.52;89.09
47636;BME280;33364;50.766;15.338;2022-11-20T10:44:04;94149.63;;;-1.43;88.37
47636;BME280;33364;50.766;15.338;2022-11-20T10:46:45;94140.88;;;-1.37;87.49
47636;BME280;33364;50.766;15.338;2022-11-20T10:49:17;94149.31;;;-1.37;85.42
47636;BME280;33364;50.766;15.338;2022-11-20T10:51:57;94160.78;;;-1.47;86.38
47636;BME280;33364;50.766;15.338;2022-11-20T11:00:12;94158.16;;;-1.26;88.12
47636;BME280;33364;50.766;15.338;2022-11-20T11:02:48;94166.97;;;-1.34;88.02
47636;BME280;33364;50.766;15.338;2022-11-20T11:05:24;94150.47;;;-1.25;89.57
47636;BME280;33364;50.766;15.338;2022-11-20T11:07:56;94147.66;;;-1.19;88.75
47636;BME280;33364;50.766;15.338;2022-11-20T11:13:02;94148.69;;;-1.06;88.90
47636;BME280;33364;50.766;15.338;2022-11-20T11:15:40;94142.56;;;-1.01;86.82
47636;BME280;33364;50.766;15.338;2022-11-20T11:18:10;94139.81;;;-0.80;92.55
47636;BME280;33364;50.766;15.338;2022-11-20T11:20:37;94132.53;;;-0.53;96.88
47636;BME280;33364;50.766;15.338;2022-11-20T11:23:03;94143.59;;;-0.54;91.72
47636;BME280;33364;50.766;15.338;2022-11-20T11:25:35;94132.25;;;-0.64;90.59
47636;BME280;33364;50.766;15.338;2022-11-20T11:28:03;94143.78;;;-0.74;86.84
47636;BME280;33364;50.766;15.338;2022-11-20T11:30:41;94133.59;;;-0.91;83.85
47636;BME280;33364;50.766;15.338;2022-11-20T11:33:18;94128.66;;;-0.60;90.16
47636;BME280;33364;50.766;15.338;2022-11-20T11:35:49;94136.44;;;-0.63;84.62
47636;BME280;33364;50.766;15.338;2022-11-20T11:38:41;94138.00;;;-0.60;87.73
47636;BME280;33364;50.766;15.338;2022-11-20T11:41:15;94133.91;;;-0.63;90.53
47636;BME280;33364;50.766;15.338;2022-11-20T11:43:50;94124.03;;;-0.36;95.21
47636;BME280;33364;50.766;15.338;2022-11-20T11:46:36;94114.91;;;-0.22;94.00
47636;BME280;33364;50.766;15.338;2022-11-20T11:51:36;94128.22;;;-0.68;84.56
47636;BME280;33364;50.766;15.338;2022-11-20T11:54:16;94127.03;;;-0.78;84.16
47636;BME280;33364;50.766;15.338;2022-11-20T11:56:43;94125.41;;;-0.79;83.62
47636;BME280;33364;50.766;15.338;2022-11-20T11:59:15;94118.97;;;-0.86;83.65
47636;BME280;33364;50.766;15.338;2022-11-20T12:01:49;94119.47;;;-0.62;88.24
47636;BME280;33364;50.766;15.338;2022-11-20T12:06:45;94108.84;;;-0.70;86.95
47636;BME280;33364;50.766;15.338;2022-11-20T12:09:12;94103.84;;;-0.55;89.85
47636;BME280;33364;50.766;15.338;2022-11-20T12:11:45;94105.44;;;-0.69;84.21
47636;BME280;33364;50.766;15.338;2022-11-20T12:14:18;94095.81;;;-0.80;83.65
47636;BME280;33364;50.766;15.338;2022-11-20T12:16:50;94094.22;;;-0.83;85.19
47636;BME280;33364;50.766;15.338;2022-11-20T12:19:17;94091.91;;;-0.87;85.16
47636;BME280;33364;50.766;15.338;2022-11-20T12:22:05;94091.19;;;-0.89;86.14
47636;BME280;33364;50.766;15.338;2022-11-20T12:24:44;94092.91;;;-0.90;84.49
47636;BME280;33364;50.766;15.338;2022-11-20T12:30:12;94076.47;;;-0.49;90.79
47636;BME280;33364;50.766;15.338;2022-11-20T12:38:14;94081.75;;;-0.70;88.96
47636;BME280;33364;50.766;15.338;2022-11-20T12:40:59;94083.34;;;-0.85;86.34
47636;BME280;33364;50.766;15.338;2022-11-20T12:43:39;94071.44;;;-0.84;87.24
47636;BME280;33364;50.766;15.338;2022-11-20T12:49:18;94079.81;;;-0.82;84.89
47636;BME280;33364;50.766;15.338;2022-11-20T12:52:03;94081.84;;;-0.89;85.91
47636;BME280;33364;50.766;15.338;2022-11-20T12:54:53;94077.66;;;-0.90;86.25
47636;BME280;33364;50.766;15.338;2022-11-20T13:00:10;94063.28;;;-0.73;90.53
47636;BME280;33364;50.766;15.338;2022-11-20T13:02:44;94080.84;;;-0.86;87.99
47636;BME280;33364;50.766;15.338;2022-11-20T13:07:50;94068.63;;;-0.95;86.87
47636;BME280;33364;50.766;15.338;2022-11-20T13:13:20;94059.28;;;-1.12;87.11
47636;BME280;33364;50.766;15.338;2022-11-20T13:15:54;94058.38;;;-1.11;87.52
47636;BME280;33364;50.766;15.338;2022-11-20T13:18:22;94049.63;;;-1.06;88.23
47636;BME280;33364;50.766;15.338;2022-11-20T13:20:48;94048.94;;;-1.25;85.50
47636;BME280;33364;50.766;15.338;2022-11-20T13:23:27;94040.19;;;-1.19;89.39
47636;BME280;33364;50.766;15.338;2022-11-20T13:26:20;94026.06;;;-1.08;89.19
47636;BME280;33364;50.766;15.338;2022-11-20T13:28:58;94032.22;;;-0.96;89.84
47636;BME280;33364;50.766;15.338;2022-11-20T13:31:32;94027.91;;;-0.94;90.41
47636;BME280;33364;50.766;15.338;2022-11-20T13:33:59;94019.28;;;-0.91;89.26
47636;BME280;33364;50.766;15.338;2022-11-20T13:36:28;94018.84;;;-0.82;90.44
47636;BME280;33364;50.766;15.338;2022-11-20T13:38:56;94026.72;;;-0.71;92.19
47636;BME280;33364;50.766;15.338;2022-11-20T13:41:29;94029.22;;;-0.87;89.09
47636;BME280;33364;50.766;15.338;2022-11-20T13:44:10;94035.41;;;-1.08;87.01
47636;BME280;33364;50.766;15.338;2022-11-20T13:46:43;94029.88;;;-1.16;88.48
47636;BME280;33364;50.766;15.338;2022-11-20T13:49:16;94030.47;;;-1.28;86.82
47636;BME280;33364;50.766;15.338;2022-11-20T13:51:46;94031.38;;;-1.29;88.03
47636;BME280;33364;50.766;15.338;2022-11-20T13:59:57;94021.66;;;-1.04;88.35
47636;BME280;33364;50.766;15.338;2022-11-20T14:02:26;94017.66;;;-0.92;89.18
47636;BME280;33364;50.766;15.338;2022-11-20T14:04:55;94023.16;;;-1.00;86.95